首页
METAR-TAF:

METAR-TAF

机场 :

Fairfield Municipal Airport

費爾菲爾德, 艾奥瓦州, 美国

纬度: 41-03N, 经度: 091-59W, 海拔: 244米

当前天气观测

该预报发布于22分钟前的21:15 UTC
风速9节,风向东北
温度 20°C
湿度 100%
气压 1005 hPa
能見度: 4.8公里
天空无云
轻雾

METAR: KFFL 192115Z AUTO 04009KT 3SM BR CLR 20/20 A2968 RMK AO2 PWINO

时间: 16:37 (21:37 UTC)


TAF: 丢失

超过4000个机场的气象观测和天气预报(METAR&TAF报告)。

可查询的气象台以黄色和红色小点在地图上表示。

将鼠标移到小点上方,可查看气象台名称。

然后点击查看天气观测和预报。

如需切换地图:点击带黑十字的绿色按钮放大地图;点击带横线的绿色按钮缩小地图;或者点击绿色箭头查看邻近地区的地图。


METAR-TAF: